Coulee, North Dakota
Current Conditions -  °F | °C
As of 6:55 PM on Saturday 22 Nov 2014 (Local Time) from K08D Reporting Station
Clear Clear  
Wind Chill: 24°   Ceiling: Unl
Heat Index: 32°   Visibility: 10mi
Dew Point: 32°   Wind: 9mph
Humidity: 100%   Direction: 260°W
Pressure: 29.26"   Gusts: NA
Location:  48.4598°N, 101.907°W
Report Text: K08D 230055Z AUTO 26008KT 10SM CLR 00/00 A2926 RMK AO2
Loading
Personal Weather Stations






























Interactive Weather Map New forecast layout! Learn more

10-Day Weather Forecast

Advertisements
Track Severe Weather on mobile